Weather History for Togiak, AK

Change the Weather History Date:

Tuesday, October 15, 2013

  Actual Average Record
Temperature  
Mean Temperature 46 °F -  
Max Temperature 48 °F 37 °F 51 °F (2003)
Min Temperature 44 °F 26 °F 14 °F (1996)
Degree Days  
Heating Degree Days 19    
Moisture  
Dew Point 45 °F    
Average Humidity 96    
Maximum Humidity 100    
Minimum Humidity 93    
Precipitation  
Precipitation 0.55 in - - ()
Sea Level Pressure  
Sea Level Pressure 29.66 in    
Wind  
Wind Speed 15 mph (SSE)    
Max Wind Speed 31 mph    
Max Gust Speed 36 mph    
Visibility 7 miles    
Events      
Averages and records for this station are not official NWS values.
T = Trace of Precipitation, MM = Missing Value Source: NWS Daily Summary

Daily Weather History Graph

Daily Weather History Graph

Search for Another Location

Airport:

Trip Planner

Search our weather history database for the weather conditions in past years. The results will help you decide how hot, cold, wet, or windy it might be!

Date:

Astronomy

Oct. 15, 2013 Rise Set
Actual Time 9:20 AM AKDT 7:33 PM AKDT
Civil Twilight 8:38 AM AKDT 8:14 PM AKDT
Nautical Twilight 7:52 AM AKDT 9:00 PM AKDT
Astronomical Twilight 7:04 AM AKDT 9:48 PM AKDT
Moon 6:18 PM AKDT (10/15) 5:13 AM AKDT (10/15)
Length of Visible Light 11h 35m
Length of Day
10h 13m
Waxing Gibbous, 89% of the Moon is Illuminated
Oct 15
Waxing Gibbous
Oct 18
Full
Oct 26
Last Quarter
Nov 3
New
Nov 9
First Quarter

Hourly Weather History & Observations

Time (AKDT) Temp. Windchill Dew Point Humidity Pressure Visibility Wind Dir Wind Speed Gust Speed Precip Events Conditions
12:16 AM 46.4 °F 40.1 °F 44.6 °F 93% 29.69 in 10.0 mi SE 15.0 mph - N/A   Overcast
12:36 AM 46.4 °F 40.7 °F 44.6 °F 93% 29.69 in 10.0 mi ESE 12.7 mph - N/A   Overcast
12:56 AM 46.4 °F 40.7 °F 44.6 °F 93% 29.69 in 10.0 mi ESE 12.7 mph - N/A   Overcast
1:16 AM 46.4 °F 40.1 °F 44.6 °F 93% 29.68 in 9.0 mi ESE 15.0 mph - N/A   Overcast
1:36 AM 44.6 °F 38.1 °F 44.6 °F 100% 29.68 in 10.0 mi ESE 13.8 mph - 0.01 in   Overcast
1:56 AM 44.6 °F 37.8 °F 44.6 °F 100% 29.67 in 9.0 mi ESE 15.0 mph - 0.01 in   Overcast
2:16 AM 44.6 °F 36.6 °F 44.6 °F 100% 29.66 in 10.0 mi ESE 19.6 mph - 0.01 in   Overcast
2:36 AM 44.6 °F 37.2 °F 44.6 °F 100% 29.65 in 9.0 mi ESE 17.3 mph - 0.01 in   Overcast
2:56 AM 44.6 °F 37.4 °F 44.6 °F 100% 29.65 in 10.0 mi ESE 16.1 mph - 0.02 in   Overcast
3:16 AM 44.6 °F 37.4 °F 42.8 °F 93% 29.64 in 9.0 mi SE 16.1 mph - 0.01 in   Overcast
3:36 AM 44.6 °F 38.1 °F 42.8 °F 93% 29.64 in 8.0 mi SE 13.8 mph - 0.03 in   Overcast
3:56 AM 44.6 °F 38.1 °F 42.8 °F 93% 29.63 in 10.0 mi SE 13.8 mph - 0.05 in   Overcast
4:16 AM 44.6 °F 38.1 °F 44.6 °F 100% 29.63 in 10.0 mi SE 13.8 mph - 0.01 in   Overcast
4:36 AM 44.6 °F 38.4 °F 44.6 °F 100% 29.62 in 8.0 mi SE 12.7 mph - 0.02 in   Overcast
4:56 AM 44.6 °F 38.4 °F 42.8 °F 93% 29.61 in 10.0 mi ESE 12.7 mph - 0.02 in   Overcast
5:16 AM 44.6 °F 39.2 °F 42.8 °F 93% 29.60 in 8.0 mi ESE 10.4 mph - 0.01 in   Overcast
5:36 AM 44.6 °F 39.2 °F 42.8 °F 93% 29.60 in 5.0 mi SE 10.4 mph - 0.01 in   Overcast
5:56 AM 44.6 °F 39.2 °F 44.6 °F 100% 29.60 in 7.0 mi ESE 10.4 mph - 0.02 in   Overcast
6:16 AM 44.6 °F 39.2 °F 44.6 °F 100% 29.60 in 5.0 mi ESE 10.4 mph - N/A   Overcast
6:36 AM 44.6 °F 39.7 °F 44.6 °F 100% 29.59 in 3.0 mi ESE 9.2 mph - 0.03 in   Overcast
6:56 AM 44.6 °F 39.2 °F 42.8 °F 93% 29.58 in 3.0 mi ESE 10.4 mph - 0.04 in   Overcast
7:16 AM 46.4 °F 41.5 °F 46.4 °F 100% 29.58 in 2.0 mi ESE 10.4 mph - 0.01 in   Overcast
7:36 AM 46.4 °F 41.5 °F 46.4 °F 100% 29.56 in 4.0 mi SE 10.4 mph - 0.03 in   Overcast
7:56 AM 46.4 °F 40.4 °F 46.4 °F 100% 29.55 in 7.0 mi SE 13.8 mph - 0.04 in   Overcast
8:16 AM 46.4 °F 40.7 °F 46.4 °F 100% 29.55 in 9.0 mi ESE 12.7 mph - 0.01 in   Overcast
8:36 AM 46.4 °F 40.4 °F 46.4 °F 100% 29.53 in 4.0 mi SE 13.8 mph - 0.03 in   Overcast
8:56 AM 46.4 °F 39.8 °F 46.4 °F 100% 29.54 in 8.0 mi SSE 16.1 mph - 0.06 in   Overcast
9:16 AM 46.4 °F 40.1 °F 44.6 °F 93% 29.53 in 7.0 mi SE 15.0 mph - 0.07 in   Overcast
9:36 AM 46.4 °F 39.5 °F 46.4 °F 100% 29.52 in 8.0 mi SE 17.3 mph - 0.11 in   Overcast
9:56 AM 48.2 °F - 46.4 °F 93% 29.52 in 9.0 mi SE 21.9 mph 27.6 mph 0.14 in   Overcast
10:16 AM 46.4 °F 38.7 °F 44.6 °F 93% 29.51 in 7.0 mi SSE 20.7 mph 26.5 mph 0.03 in   Overcast
10:36 AM 48.2 °F - 46.4 °F 93% 29.51 in 4.0 mi SSE 27.6 mph - 0.08 in   Overcast
10:56 AM 46.4 °F 37.9 °F 44.6 °F 93% 29.51 in 3.0 mi SSE 25.3 mph 31.1 mph 0.11 in   Overcast
11:16 AM 48.2 °F - 46.4 °F 93% 29.51 in 3.0 mi SSE 31.1 mph - 0.02 in   Overcast
11:36 AM 48.2 °F - 46.4 °F 93% 29.51 in 1.5 mi SSE 29.9 mph - 0.03 in   Overcast
11:56 AM 46.4 °F 37.4 °F 44.6 °F 93% 29.52 in 1.2 mi SSE 28.8 mph - 0.03 in   Overcast
12:16 PM 46.4 °F 37.7 °F 46.4 °F 100% 29.53 in 1.8 mi South 26.5 mph - N/A   Overcast
12:36 PM 48.2 °F - 46.4 °F 93% 29.54 in 2.0 mi South 27.6 mph 35.7 mph N/A   Overcast
1:16 PM 48.2 °F - 46.4 °F 93% 29.55 in 5.0 mi South 28.8 mph 33.4 mph N/A   Overcast
1:36 PM 46.4 °F 37.5 °F 44.6 °F 93% 29.57 in 2.5 mi South 27.6 mph - N/A   Overcast
1:56 PM 46.4 °F 37.7 °F 46.4 °F 100% 29.58 in 3.0 mi South 26.5 mph - N/A   Overcast
2:16 PM 46.4 °F 37.5 °F 46.4 °F 100% 29.59 in 9.0 mi South 27.6 mph 32.2 mph N/A   Overcast
2:36 PM 46.4 °F 38.3 °F 46.4 °F 100% 29.61 in 8.0 mi SSW 23.0 mph - N/A   Overcast
2:56 PM 46.4 °F 38.3 °F 44.6 °F 93% 29.64 in 9.0 mi SSW 23.0 mph - N/A   Overcast
3:16 PM 46.4 °F 40.1 °F 44.6 °F 93% 29.66 in 7.0 mi SW 15.0 mph - N/A   Overcast
3:36 PM 46.4 °F 40.1 °F 44.6 °F 93% 29.67 in 8.0 mi SSW 15.0 mph - N/A   Overcast
3:56 PM 46.4 °F 39.2 °F 44.6 °F 93% 29.68 in 10.0 mi SSW 18.4 mph - N/A   Overcast
4:16 PM 46.4 °F 40.1 °F 44.6 °F 93% 29.71 in 9.0 mi SW 15.0 mph - N/A   Overcast
4:36 PM 46.4 °F 41.5 °F 44.6 °F 93% 29.71 in 10.0 mi SW 10.4 mph - N/A   Overcast
4:56 PM 46.4 °F 41.5 °F 44.6 °F 93% 29.73 in 10.0 mi SSW 10.4 mph - N/A   Overcast
5:16 PM 46.4 °F 43.5 °F 44.6 °F 93% 29.73 in 10.0 mi SSE 5.8 mph - N/A   Overcast
5:36 PM 46.4 °F 42.9 °F 44.6 °F 93% 29.74 in 5.0 mi South 6.9 mph - N/A   Overcast
5:56 PM 46.4 °F 41.9 °F 44.6 °F 93% 29.74 in 8.0 mi SE 9.2 mph - N/A   Overcast
6:16 PM 46.4 °F 41.5 °F 44.6 °F 93% 29.75 in 10.0 mi SSE 10.4 mph - N/A   Overcast
6:36 PM 46.4 °F 39.5 °F 46.4 °F 100% 29.76 in 10.0 mi SSE 17.3 mph 20.7 mph N/A   Overcast
6:56 PM 44.6 °F 36.6 °F 42.8 °F 93% 29.76 in 1.5 mi SSE 19.6 mph - N/A   Overcast
7:16 PM 44.6 °F 37.4 °F 42.8 °F 93% 29.77 in 1.2 mi SSE 16.1 mph - N/A   Overcast
7:36 PM 44.6 °F 37.8 °F 44.6 °F 100% 29.77 in 1.2 mi SSE 15.0 mph - N/A   Overcast
7:56 PM 44.6 °F 38.1 °F 44.6 °F 100% 29.78 in 10.0 mi SSE 13.8 mph - N/A   Overcast
8:16 PM 44.6 °F 38.8 °F 42.8 °F 93% 29.79 in 10.0 mi SE 11.5 mph - N/A   Overcast
8:36 PM 44.6 °F 39.2 °F 42.8 °F 93% 29.79 in 10.0 mi SE 10.4 mph - N/A   Overcast
8:56 PM 44.6 °F 38.8 °F 44.6 °F 100% 29.80 in 10.0 mi SE 11.5 mph - N/A   Overcast
9:16 PM 46.4 °F 39.8 °F 44.6 °F 93% 29.80 in 10.0 mi SSE 16.1 mph - N/A   Overcast
9:36 PM 46.4 °F 40.1 °F 44.6 °F 93% 29.80 in 10.0 mi SE 15.0 mph - N/A   Overcast
9:56 PM 46.4 °F 40.7 °F 44.6 °F 93% 29.80 in 10.0 mi SE 12.7 mph - N/A   Overcast
10:16 PM 46.4 °F 40.7 °F 44.6 °F 93% 29.81 in 10.0 mi SE 12.7 mph - N/A   Overcast
10:36 PM 46.4 °F 40.7 °F 46.4 °F 100% 29.80 in 9.0 mi SE 12.7 mph - N/A   Overcast
10:56 PM 46.4 °F 41.1 °F 46.4 °F 100% 29.80 in 9.0 mi SE 11.5 mph - N/A   Overcast
11:16 PM 46.4 °F 41.9 °F 46.4 °F 100% 29.80 in 6.0 mi SSE 9.2 mph - N/A   Overcast
11:36 PM 46.4 °F 41.9 °F 46.4 °F 100% 29.80 in 7.0 mi SSE 9.2 mph - 0.01 in   Overcast
11:56 PM 46.4 °F 41.1 °F 44.6 °F 93% 29.80 in 9.0 mi SSE 11.5 mph - 0.01 in   Overcast